createdAt,value
2022-09-03T00:00:44.635Z,18.40
2022-09-03T00:03:19.337Z,18.40
2022-09-03T00:05:53.533Z,18.30
2022-09-03T00:08:27.167Z,18.20
2022-09-03T00:11:00.918Z,18.30
2022-09-03T00:13:34.863Z,18.20
2022-09-03T00:16:10.449Z,18.10
2022-09-03T00:18:45.278Z,18.10
2022-09-03T00:21:18.913Z,18.00
2022-09-03T00:23:51.806Z,18.10
2022-09-03T00:26:27.241Z,18.00
2022-09-03T00:29:03.500Z,18.10
2022-09-03T00:31:38.636Z,18.10
2022-09-03T00:34:13.592Z,18.20
2022-09-03T00:36:46.949Z,18.20
2022-09-03T00:39:19.140Z,18.20
2022-09-03T00:42:04.047Z,18.20
2022-09-03T00:44:46.968Z,18.20
2022-09-03T00:47:21.262Z,18.00
2022-09-03T00:49:59.757Z,17.90
2022-09-03T00:52:37.806Z,18.00
2022-09-03T00:55:12.384Z,18.00
2022-09-03T00:57:49.597Z,18.10
2022-09-03T01:00:22.211Z,18.00
2022-09-03T01:03:01.622Z,18.00
2022-09-03T01:05:46.627Z,18.10
2022-09-03T01:08:25.014Z,18.20
2022-09-03T01:10:58.920Z,18.10
2022-09-03T01:13:33.240Z,18.20
2022-09-03T01:16:08.762Z,18.30
2022-09-03T01:18:43.106Z,18.20
2022-09-03T01:24:41.212Z,18.10
2022-09-03T01:27:22.233Z,18.10
2022-09-03T01:29:55.851Z,18.00
2022-09-03T01:32:30.558Z,18.10
2022-09-03T01:35:04.315Z,18.10
2022-09-03T01:37:40.525Z,18.00
2022-09-03T01:40:15.826Z,18.00
2022-09-03T01:42:51.771Z,18.00
2022-09-03T01:45:40.495Z,18.00
2022-09-03T01:48:23.987Z,18.00
2022-09-03T01:50:59.925Z,18.00
2022-09-03T01:53:39.199Z,17.90
2022-09-03T01:56:22.066Z,17.90
2022-09-03T01:58:57.053Z,17.90
2022-09-03T02:01:31.836Z,17.90
2022-09-03T02:04:03.275Z,18.00
2022-09-03T02:06:33.957Z,18.00
2022-09-03T02:09:04.573Z,17.90
2022-09-03T02:11:37.371Z,17.90
2022-09-03T02:14:08.504Z,17.90
2022-09-03T02:16:39.505Z,17.90
2022-09-03T02:19:13.010Z,18.00
2022-09-03T02:21:46.645Z,18.00
2022-09-03T02:24:17.479Z,18.00
2022-09-03T02:26:48.230Z,18.00
2022-09-03T02:29:20.955Z,18.00
2022-09-03T02:31:51.597Z,18.00
2022-09-03T02:34:22.170Z,18.00
2022-09-03T02:36:52.781Z,18.00
2022-09-03T02:39:23.384Z,17.90
2022-09-03T02:41:56.301Z,17.90
2022-09-03T02:44:31.763Z,17.80
2022-09-03T02:47:03.982Z,17.90
2022-09-03T02:49:35.545Z,17.80
2022-09-03T02:52:09.704Z,17.90
2022-09-03T02:54:40.731Z,17.90
2022-09-03T02:57:12.993Z,17.90
2022-09-03T02:59:44.677Z,17.90
2022-09-03T03:02:15.901Z,17.90
2022-09-03T03:04:46.647Z,17.90
2022-09-03T03:07:17.276Z,17.90
2022-09-03T03:09:47.796Z,17.90
2022-09-03T03:12:19.381Z,17.90
2022-09-03T03:14:50.006Z,17.80
2022-09-03T03:17:20.625Z,17.80
2022-09-03T03:19:51.281Z,17.80
2022-09-03T03:22:21.899Z,17.70
2022-09-03T03:24:52.999Z,17.80
2022-09-03T03:27:24.132Z,17.70
2022-09-03T03:29:55.097Z,17.70
2022-09-03T03:32:25.693Z,17.70
2022-09-03T03:34:56.247Z,17.60
2022-09-03T03:37:26.889Z,17.60
2022-09-03T03:39:57.495Z,17.60
2022-09-03T03:42:28.165Z,17.70
2022-09-03T03:44:58.752Z,17.60
2022-09-03T03:47:29.439Z,17.50
2022-09-03T03:50:00.418Z,17.60
2022-09-03T03:52:31.400Z,17.60
2022-09-03T03:55:02.087Z,17.50
2022-09-03T03:57:33.969Z,17.60
2022-09-03T04:00:05.579Z,17.50
2022-09-03T04:02:39.161Z,17.40
2022-09-03T04:05:11.128Z,17.50
2022-09-03T04:07:42.204Z,17.50
2022-09-03T04:10:13.323Z,17.40
2022-09-03T04:12:43.911Z,17.40
2022-09-03T04:15:14.880Z,17.30
2022-09-03T04:17:45.518Z,17.30
2022-09-03T04:20:16.541Z,17.30
2022-09-03T04:22:51.360Z,17.30
2022-09-03T04:25:19.529Z,17.20
2022-09-03T04:27:52.816Z,17.20
2022-09-03T04:30:23.833Z,17.30
2022-09-03T04:32:55.195Z,17.30
2022-09-03T04:35:30.041Z,17.30
2022-09-03T04:38:01.746Z,17.30
2022-09-03T04:40:32.403Z,17.30
2022-09-03T04:43:03.078Z,17.40
2022-09-03T04:45:33.710Z,17.40
2022-09-03T04:48:05.995Z,17.40
2022-09-03T04:50:36.667Z,17.40
2022-09-03T04:53:08.178Z,17.50
2022-09-03T04:55:39.847Z,17.50
2022-09-03T04:58:10.450Z,17.50
2022-09-03T05:00:41.483Z,17.50
2022-09-03T05:03:12.741Z,17.40
2022-09-03T05:05:43.331Z,17.40
2022-09-03T05:08:13.902Z,17.30
2022-09-03T05:10:44.603Z,17.30
2022-09-03T05:13:15.161Z,17.20
2022-09-03T05:15:47.058Z,17.20
2022-09-03T05:18:18.048Z,17.20
2022-09-03T05:20:52.129Z,17.10
2022-09-03T05:23:22.757Z,17.10
2022-09-03T05:25:59.205Z,17.00
2022-09-03T05:28:31.496Z,17.10
2022-09-03T05:31:03.304Z,17.10
2022-09-03T05:33:36.313Z,17.20
2022-09-03T05:36:09.125Z,17.20
2022-09-03T05:38:40.187Z,17.20
2022-09-03T05:41:13.358Z,17.20
2022-09-03T05:43:44.816Z,17.30
2022-09-03T05:46:18.636Z,17.30
2022-09-03T05:48:49.532Z,17.30
2022-09-03T05:51:21.002Z,17.30
2022-09-03T05:53:53.686Z,17.40
2022-09-03T05:59:07.001Z,17.50
2022-09-03T06:01:39.455Z,17.50
2022-09-03T06:04:11.930Z,17.50
2022-09-03T06:06:44.537Z,17.50
2022-09-03T06:09:18.132Z,17.50
2022-09-03T06:11:50.364Z,17.60
2022-09-03T06:14:23.942Z,17.60
2022-09-03T06:16:55.887Z,17.60
2022-09-03T06:19:26.627Z,17.40
2022-09-03T06:21:57.317Z,17.60
2022-09-03T06:24:29.939Z,17.70
2022-09-03T06:27:01.711Z,17.70
2022-09-03T06:29:34.569Z,17.70
2022-09-03T06:32:05.867Z,17.80
2022-09-03T06:34:36.552Z,17.90
2022-09-03T06:37:07.358Z,18.10
2022-09-03T06:39:38.160Z,18.20
2022-09-03T06:42:10.062Z,18.30
2022-09-03T06:44:40.756Z,18.40
2022-09-03T06:47:11.441Z,18.60
2022-09-03T06:49:42.125Z,18.70
2022-09-03T06:52:12.893Z,18.80
2022-09-03T06:54:43.515Z,18.80
2022-09-03T06:57:14.146Z,18.90
2022-09-03T06:59:45.001Z,18.90
2022-09-03T07:02:15.795Z,19.00
2022-09-03T07:04:46.763Z,19.20
2022-09-03T07:07:19.026Z,19.40
2022-09-03T07:09:49.707Z,19.40
2022-09-03T07:12:20.455Z,19.40
2022-09-03T07:14:51.345Z,19.50
2022-09-03T07:17:22.069Z,19.60
2022-09-03T07:19:52.678Z,19.80
2022-09-03T07:22:23.513Z,20.10
2022-09-03T07:24:55.784Z,20.30
2022-09-03T07:27:26.625Z,20.20
2022-09-03T07:29:57.308Z,20.00
2022-09-03T07:32:27.936Z,20.00
2022-09-03T07:34:58.517Z,20.00
2022-09-03T07:37:29.249Z,20.00
2022-09-03T07:39:59.982Z,19.80
2022-09-03T07:42:31.340Z,19.60
2022-09-03T07:45:03.513Z,19.70
2022-09-03T07:47:34.814Z,19.80
2022-09-03T07:50:06.424Z,19.90
2022-09-03T07:52:37.092Z,20.10
2022-09-03T07:55:10.695Z,20.10
2022-09-03T07:57:41.504Z,20.40
2022-09-03T08:00:17.713Z,20.70
2022-09-03T08:02:48.358Z,21.00
2022-09-03T08:05:20.585Z,21.40
2022-09-03T08:07:51.684Z,21.60
2022-09-03T08:10:22.874Z,21.80
2022-09-03T08:12:53.535Z,21.90
2022-09-03T08:15:24.256Z,22.10
2022-09-03T08:17:55.229Z,22.10
2022-09-03T08:20:28.027Z,21.80
2022-09-03T08:25:41.837Z,21.60
2022-09-03T08:28:12.548Z,21.50
2022-09-03T08:30:43.258Z,21.50
2022-09-03T08:33:13.936Z,21.40
2022-09-03T08:35:44.557Z,21.50
2022-09-03T08:38:15.663Z,21.70
2022-09-03T08:40:46.587Z,22.10
2022-09-03T08:43:20.032Z,22.00
2022-09-03T08:45:50.765Z,22.20
2022-09-03T08:48:25.994Z,22.40
2022-09-03T08:51:00.134Z,22.60
2022-09-03T08:56:14.427Z,22.80
2022-09-03T08:58:45.146Z,22.70
2022-09-03T09:01:20.116Z,22.90
2022-09-03T09:03:56.408Z,22.70
2022-09-03T09:06:31.221Z,22.50
2022-09-03T09:09:07.256Z,22.60
2022-09-03T09:11:47.063Z,22.20
2022-09-03T09:14:21.472Z,22.30
2022-09-03T09:16:57.679Z,22.40
2022-09-03T09:19:44.761Z,22.50
2022-09-03T09:22:18.278Z,22.80
2022-09-03T09:24:51.538Z,22.70
2022-09-03T09:27:23.587Z,23.10
2022-09-03T09:29:55.094Z,22.80
2022-09-03T09:32:25.648Z,22.90
2022-09-03T09:34:56.253Z,23.20
2022-09-03T09:37:26.948Z,23.00
2022-09-03T09:40:00.404Z,23.20
2022-09-03T09:42:31.958Z,23.10
2022-09-03T09:45:11.865Z,23.00
2022-09-03T09:47:43.142Z,22.90
2022-09-03T09:50:26.129Z,23.00
2022-09-03T09:53:06.008Z,22.80
2022-09-03T09:55:37.726Z,22.70
2022-09-03T09:58:14.424Z,22.90
2022-09-03T10:00:43.873Z,23.10
2022-09-03T10:03:14.896Z,23.30
2022-09-03T10:05:47.388Z,23.70
2022-09-03T10:08:23.799Z,24.00
2022-09-03T10:10:54.676Z,23.90
2022-09-03T10:13:28.265Z,23.90
2022-09-03T10:16:02.467Z,23.90
2022-09-03T10:18:36.438Z,23.60
2022-09-03T10:21:11.322Z,23.80
2022-09-03T10:23:46.906Z,24.00
2022-09-03T10:26:20.587Z,24.10
2022-09-03T10:31:45.367Z,23.70
2022-09-03T10:34:19.566Z,23.50
2022-09-03T10:36:54.233Z,23.60
2022-09-03T10:39:28.509Z,23.50
2022-09-03T10:42:06.991Z,23.30
2022-09-03T10:47:47.035Z,23.40
2022-09-03T10:50:20.395Z,23.60
2022-09-03T10:53:03.548Z,23.90
2022-09-03T10:55:39.418Z,24.50
2022-09-03T10:58:16.719Z,25.20
2022-09-03T11:00:52.300Z,25.40
2022-09-03T11:03:39.135Z,25.50
2022-09-03T11:06:13.702Z,25.70
2022-09-03T11:08:48.183Z,25.80
2022-09-03T11:11:22.409Z,26.20
2022-09-03T11:13:56.278Z,26.30
2022-09-03T11:16:29.932Z,26.30
2022-09-03T11:19:04.392Z,25.70
2022-09-03T11:21:38.050Z,26.10
2022-09-03T11:24:13.998Z,26.60
2022-09-03T11:26:48.654Z,26.60
2022-09-03T11:29:22.279Z,26.70
2022-09-03T11:34:37.690Z,26.60
2022-09-03T11:37:11.532Z,26.50
2022-09-03T11:39:42.819Z,26.00
2022-09-03T11:42:16.234Z,26.00
2022-09-03T11:44:52.174Z,26.30
2022-09-03T11:47:28.070Z,26.00
2022-09-03T11:50:08.266Z,26.10
2022-09-03T11:52:40.765Z,26.30
2022-09-03T11:55:11.511Z,26.50
2022-09-03T11:57:44.332Z,26.70
2022-09-03T12:00:18.678Z,27.10
2022-09-03T12:02:56.739Z,27.00
2022-09-03T12:05:30.305Z,27.20
2022-09-03T12:11:03.008Z,28.70
2022-09-03T12:13:51.077Z,28.70
2022-09-03T12:16:51.106Z,28.90
2022-09-03T12:19:26.664Z,28.90
2022-09-03T12:21:57.861Z,27.80
2022-09-03T12:24:34.671Z,27.60
2022-09-03T12:27:06.128Z,27.70
2022-09-03T12:29:36.753Z,28.10
2022-09-03T12:32:14.149Z,28.00
2022-09-03T12:34:44.740Z,27.80
2022-09-03T12:40:07.673Z,27.90
2022-09-03T12:42:32.588Z,27.60
2022-09-03T12:45:10.658Z,27.30
2022-09-03T12:47:43.449Z,27.00
2022-09-03T12:50:17.127Z,26.90
2022-09-03T12:52:50.593Z,26.60
2022-09-03T12:55:35.753Z,26.50
2022-09-03T12:58:15.648Z,26.30
2022-09-03T13:00:50.402Z,26.20
2022-09-03T13:03:24.349Z,26.10
2022-09-03T13:05:58.003Z,26.00
2022-09-03T13:08:32.122Z,26.00
2022-09-03T13:11:05.366Z,26.00
2022-09-03T13:13:38.162Z,26.20
2022-09-03T13:16:18.971Z,26.30
2022-09-03T13:18:52.936Z,26.50
2022-09-03T13:21:28.340Z,26.50
2022-09-03T13:24:10.326Z,27.10
2022-09-03T13:26:46.783Z,27.50
2022-09-03T13:29:25.395Z,27.20
2022-09-03T13:32:04.009Z,27.00
2022-09-03T13:34:36.607Z,27.30
2022-09-03T13:37:14.086Z,27.40
2022-09-03T13:39:47.704Z,28.30
2022-09-03T13:42:24.589Z,28.80
2022-09-03T13:44:58.995Z,29.30
2022-09-03T13:47:33.296Z,29.70
2022-09-03T13:50:23.806Z,29.80
2022-09-03T13:52:59.523Z,29.50
2022-09-03T13:58:16.658Z,28.00
2022-09-03T14:00:50.354Z,28.80
2022-09-03T14:03:26.819Z,29.30
2022-09-03T14:06:08.951Z,30.20
2022-09-03T14:08:46.231Z,30.70
2022-09-03T14:11:23.851Z,30.50
2022-09-03T14:14:02.532Z,30.70
2022-09-03T14:16:38.284Z,30.80
2022-09-03T14:19:12.216Z,30.90
2022-09-03T14:21:46.970Z,30.90
2022-09-03T14:24:23.184Z,30.80
2022-09-03T14:26:55.965Z,31.30
2022-09-03T14:29:29.372Z,31.30
2022-09-03T14:32:23.961Z,31.10
2022-09-03T14:35:19.009Z,30.50
2022-09-03T14:38:07.027Z,30.90
2022-09-03T14:40:44.014Z,30.50
2022-09-03T14:43:29.255Z,30.40
2022-09-03T14:46:13.534Z,31.00
2022-09-03T14:48:55.528Z,31.30
2022-09-03T14:51:41.860Z,31.50
2022-09-03T14:54:24.193Z,31.80
2022-09-03T14:59:52.165Z,31.80
2022-09-03T15:02:59.339Z,31.20
2022-09-03T15:05:46.298Z,31.20
2022-09-03T15:08:21.622Z,31.60
2022-09-03T15:10:56.772Z,30.80
2022-09-03T15:13:31.030Z,30.30
2022-09-03T15:16:12.943Z,30.40
2022-09-03T15:18:51.851Z,29.80
2022-09-03T15:21:27.170Z,29.40
2022-09-03T15:24:04.114Z,29.60
2022-09-03T15:26:55.690Z,30.20
2022-09-03T15:29:55.658Z,30.40
2022-09-03T15:32:42.006Z,29.90
2022-09-03T15:35:15.029Z,30.10
2022-09-03T15:37:50.234Z,30.10
2022-09-03T15:40:28.201Z,30.20
2022-09-03T15:43:02.274Z,29.50
2022-09-03T15:45:39.891Z,28.60
2022-09-03T15:48:21.186Z,28.00
2022-09-03T15:50:57.769Z,27.50
2022-09-03T15:53:37.233Z,27.20
2022-09-03T15:56:27.093Z,26.70
2022-09-03T15:59:04.276Z,26.50
2022-09-03T16:01:44.147Z,26.20
2022-09-03T16:04:29.642Z,25.70
2022-09-03T16:07:05.139Z,25.30
2022-09-03T16:09:45.482Z,25.10
2022-09-03T16:15:04.398Z,24.90
2022-09-03T16:17:39.844Z,24.70
2022-09-03T16:20:16.197Z,24.60
2022-09-03T16:22:52.065Z,24.70
2022-09-03T16:25:25.999Z,24.70
2022-09-03T16:28:08.069Z,24.50
2022-09-03T16:30:45.285Z,24.50
2022-09-03T16:33:22.055Z,24.40
2022-09-03T16:35:56.818Z,24.40
2022-09-03T16:38:35.270Z,24.30
2022-09-03T16:41:13.048Z,24.30
2022-09-03T16:46:28.942Z,24.30
2022-09-03T16:49:27.951Z,24.30
2022-09-03T16:52:02.466Z,24.20
2022-09-03T16:54:41.075Z,24.20
2022-09-03T16:57:20.119Z,24.10
2022-09-03T17:00:04.900Z,23.90
2022-09-03T17:03:03.065Z,23.90
2022-09-03T17:05:50.739Z,23.80
2022-09-03T17:08:27.786Z,23.90
2022-09-03T17:11:04.445Z,23.90
2022-09-03T17:14:12.948Z,23.70
2022-09-03T17:16:50.105Z,23.90
2022-09-03T17:19:26.470Z,23.90
2022-09-03T17:22:07.201Z,24.00
2022-09-03T17:24:41.693Z,24.00
2022-09-03T17:27:26.504Z,23.90
2022-09-03T17:30:11.041Z,23.90
2022-09-03T17:32:58.934Z,23.90
2022-09-03T17:35:38.119Z,23.80
2022-09-03T17:38:30.329Z,23.60
2022-09-03T17:41:06.549Z,23.60
2022-09-03T17:43:43.047Z,23.50
2022-09-03T17:46:34.501Z,23.20
2022-09-03T17:49:09.246Z,23.20
2022-09-03T17:51:46.459Z,23.20
2022-09-03T17:54:21.956Z,23.10
2022-09-03T17:56:57.422Z,23.10
2022-09-03T17:59:34.871Z,23.20
2022-09-03T18:02:08.579Z,23.20
2022-09-03T18:04:46.239Z,23.10
2022-09-03T18:07:23.720Z,23.00
2022-09-03T18:10:00.198Z,22.90
2022-09-03T18:12:36.868Z,22.90
2022-09-03T18:15:11.548Z,22.90
2022-09-03T18:17:47.656Z,22.90
2022-09-03T18:20:36.265Z,22.80
2022-09-03T18:23:27.855Z,22.60
2022-09-03T18:26:18.991Z,22.30
2022-09-03T18:29:10.133Z,22.30
2022-09-03T18:31:58.598Z,22.40
2022-09-03T18:34:49.842Z,22.40
2022-09-03T18:37:41.777Z,22.30
2022-09-03T18:40:35.570Z,22.20
2022-09-03T18:43:29.184Z,22.20
2022-09-03T18:49:16.888Z,22.10
2022-09-03T18:52:10.965Z,22.00
2022-09-03T18:55:08.769Z,21.80
2022-09-03T18:58:01.323Z,21.40
2022-09-03T19:00:53.781Z,21.20
2022-09-03T19:03:49.017Z,21.10
2022-09-03T19:06:43.512Z,21.00
2022-09-03T19:09:36.788Z,20.70
2022-09-03T19:12:32.820Z,20.70
2022-09-03T19:15:24.561Z,20.70
2022-09-03T19:18:28.711Z,20.60
2022-09-03T19:21:24.255Z,20.60
2022-09-03T19:24:14.655Z,20.40
2022-09-03T19:27:29.961Z,20.30
2022-09-03T19:30:07.488Z,20.30
2022-09-03T19:32:59.253Z,20.10
2022-09-03T19:35:51.091Z,19.90
2022-09-03T19:38:42.312Z,19.80
2022-09-03T19:41:36.826Z,19.60
2022-09-03T19:44:39.909Z,19.60
2022-09-03T19:47:30.307Z,19.50
2022-09-03T19:50:25.384Z,19.40
2022-09-03T19:53:19.279Z,19.50
2022-09-03T19:56:09.698Z,19.30
2022-09-03T19:59:01.373Z,19.30
2022-09-03T20:01:55.497Z,19.30
2022-09-03T20:04:47.746Z,19.20
2022-09-03T20:07:37.316Z,19.20
2022-09-03T20:10:22.402Z,19.20
2022-09-03T20:12:57.484Z,19.30
2022-09-03T20:15:31.795Z,19.30
2022-09-03T20:18:06.994Z,19.10
2022-09-03T20:20:41.791Z,19.00
2022-09-03T20:23:16.554Z,19.00
2022-09-03T20:26:06.192Z,18.90
2022-09-03T20:28:41.448Z,19.00
2022-09-03T20:31:16.096Z,18.90
2022-09-03T20:33:57.461Z,18.60
2022-09-03T20:36:33.117Z,18.60
2022-09-03T20:39:21.864Z,18.60
2022-09-03T20:41:57.926Z,18.60
2022-09-03T20:44:39.978Z,18.60
2022-09-03T20:47:20.343Z,18.50
2022-09-03T20:49:55.362Z,18.30
2022-09-03T20:52:31.276Z,18.20
2022-09-03T20:55:07.691Z,18.30
2022-09-03T20:57:46.435Z,18.30
2022-09-03T21:00:19.434Z,18.30
2022-09-03T21:03:16.857Z,18.30
2022-09-03T21:05:54.247Z,18.30
2022-09-03T21:08:31.919Z,18.30
2022-09-03T21:11:06.411Z,18.30
2022-09-03T21:13:40.477Z,18.30
2022-09-03T21:16:21.554Z,18.10
2022-09-03T21:18:58.450Z,18.20
2022-09-03T21:21:36.326Z,18.30
2022-09-03T21:24:10.276Z,18.40
2022-09-03T21:26:46.001Z,18.30
2022-09-03T21:29:22.386Z,18.30
2022-09-03T21:31:57.661Z,18.20
2022-09-03T21:34:32.807Z,18.20
2022-09-03T21:37:05.525Z,18.20
2022-09-03T21:42:21.431Z,18.00
2022-09-03T21:44:58.310Z,17.90
2022-09-03T21:47:31.824Z,18.00
2022-09-03T21:52:47.940Z,18.00
2022-09-03T21:55:25.348Z,18.10
2022-09-03T21:58:06.552Z,18.10
2022-09-03T22:00:38.006Z,18.00
2022-09-03T22:03:10.660Z,18.00
2022-09-03T22:05:46.952Z,18.00
2022-09-03T22:08:23.748Z,18.00
2022-09-03T22:11:01.603Z,17.80
2022-09-03T22:13:35.289Z,17.90
2022-09-03T22:16:12.891Z,17.60
2022-09-03T22:18:44.354Z,17.70
2022-09-03T22:21:20.253Z,17.60
2022-09-03T22:24:01.082Z,17.60
2022-09-03T22:30:20.066Z,17.60
2022-09-03T22:32:54.596Z,17.60
2022-09-03T22:35:46.667Z,17.60
2022-09-03T22:38:41.077Z,17.50
2022-09-03T22:41:19.478Z,17.50
2022-09-03T22:43:53.557Z,17.50
2022-09-03T22:46:26.889Z,17.30
2022-09-03T22:49:08.960Z,17.50
2022-09-03T22:51:47.263Z,17.60
2022-09-03T22:54:25.651Z,17.40
2022-09-03T22:56:57.566Z,17.40
2022-09-03T22:59:31.449Z,17.40
2022-09-03T23:02:06.916Z,17.40
2022-09-03T23:04:41.033Z,17.40
2022-09-03T23:07:18.056Z,17.50
2022-09-03T23:09:52.026Z,17.40
2022-09-03T23:12:26.949Z,17.40
2022-09-03T23:15:01.513Z,17.40
2022-09-03T23:22:43.588Z,17.50
2022-09-03T23:25:17.666Z,17.50
2022-09-03T23:27:51.630Z,17.50
2022-09-03T23:30:23.114Z,17.50
2022-09-03T23:32:56.680Z,17.40
2022-09-03T23:35:30.204Z,17.40
2022-09-03T23:38:11.572Z,17.40
2022-09-03T23:40:49.307Z,17.40
2022-09-03T23:43:50.474Z,17.40
2022-09-03T23:46:25.127Z,17.40
2022-09-03T23:52:25.228Z,17.40
2022-09-03T23:55:00.059Z,17.40
2022-09-03T23:57:33.697Z,17.30
